Tintah, Minnesota
Current Conditions -  °F | °C
As of 7:34 PM on Thursday 18 Dec 2014 (Local Time) from KY63 Reporting Station
Overcast Overcast  
Wind Chill:   Ceiling: 3500
Heat Index: 19°   Visibility: 10mi
Dew Point: 15°   Wind: 10mph
Humidity: 84%   Direction: 150°SSE
Pressure: 30.18"   Gusts: NA
Location:  46.01°N, 96.32°W
Report Text: KY63 190134Z AUTO 15009KT 10SM OVC035 M07/M09 A3018 RMK AO2 T10721095
Loading
Personal Weather Stations






























Interactive Weather Map New forecast layout! Learn more

10-Day Weather Forecast

Advertisements
Track Severe Weather on mobile